createdAt,value
2022-08-12T00:01:16.279Z,32.00
2022-08-12T00:04:24.265Z,32.20
2022-08-12T00:07:30.126Z,32.10
2022-08-12T00:10:34.543Z,32.20
2022-08-12T00:13:38.933Z,32.10
2022-08-12T00:16:46.659Z,32.20
2022-08-12T00:19:51.379Z,32.50
2022-08-12T00:22:59.096Z,32.10
2022-08-12T00:26:20.862Z,33.20
2022-08-12T00:29:29.483Z,32.50
2022-08-12T00:32:36.691Z,31.90
2022-08-12T00:35:42.523Z,31.90
2022-08-12T00:38:48.933Z,32.00
2022-08-12T00:41:55.046Z,31.90
2022-08-12T00:44:44.947Z,31.90
2022-08-12T00:47:35.230Z,31.80
2022-08-12T00:50:24.491Z,31.90
2022-08-12T00:53:12.120Z,32.30
2022-08-12T00:56:01.835Z,32.00
2022-08-12T00:58:50.963Z,32.10
2022-08-12T01:02:02.471Z,31.90
2022-08-12T01:05:07.835Z,32.10
2022-08-12T01:08:12.710Z,32.40
2022-08-12T01:11:17.926Z,32.50
2022-08-12T01:14:05.297Z,32.40
2022-08-12T01:16:54.375Z,32.40
2022-08-12T01:19:42.390Z,32.10
2022-08-12T01:22:42.380Z,32.10
2022-08-12T01:25:55.784Z,32.10
2022-08-12T01:28:48.494Z,32.10
2022-08-12T01:31:39.235Z,32.50
2022-08-12T01:34:36.817Z,32.40
2022-08-12T01:37:27.494Z,32.70
2022-08-12T01:40:34.980Z,32.80
2022-08-12T01:43:27.367Z,32.70
2022-08-12T01:46:31.258Z,32.60
2022-08-12T01:49:38.896Z,32.30
2022-08-12T01:52:38.434Z,32.50
2022-08-12T01:55:29.633Z,32.70
2022-08-12T01:58:29.054Z,32.70
2022-08-12T02:01:22.700Z,32.80
2022-08-12T02:04:36.212Z,32.60
2022-08-12T02:07:56.791Z,32.50
2022-08-12T02:11:14.836Z,32.90
2022-08-12T02:14:32.776Z,32.90
2022-08-12T02:17:55.819Z,32.70
2022-08-12T02:20:52.998Z,32.70
2022-08-12T02:23:42.405Z,32.80
2022-08-12T02:26:34.593Z,32.80
2022-08-12T02:29:23.575Z,33.00
2022-08-12T02:32:11.595Z,32.60
2022-08-12T02:34:59.236Z,32.60
2022-08-12T02:37:48.226Z,32.60
2022-08-12T02:40:40.312Z,32.70
2022-08-12T02:43:37.902Z,33.00
2022-08-12T02:46:32.419Z,32.90
2022-08-12T02:49:26.986Z,32.90
2022-08-12T02:52:17.979Z,32.80
2022-08-12T02:55:28.140Z,33.00
2022-08-12T02:58:33.356Z,33.00
2022-08-12T03:01:32.743Z,33.10
2022-08-12T03:04:27.384Z,33.10
2022-08-12T03:07:22.111Z,33.00
2022-08-12T03:10:15.952Z,33.20
2022-08-12T03:13:07.107Z,33.10
2022-08-12T03:15:55.599Z,33.10
2022-08-12T03:18:46.275Z,33.00
2022-08-12T03:21:52.972Z,33.20
2022-08-12T03:24:46.554Z,33.20
2022-08-12T03:27:33.874Z,33.20
2022-08-12T03:30:21.754Z,33.30
2022-08-12T03:33:09.445Z,33.60
2022-08-12T03:36:01.187Z,33.60
2022-08-12T03:39:12.122Z,33.60
2022-08-12T03:42:07.693Z,33.70
2022-08-12T03:45:26.692Z,33.80
2022-08-12T03:48:33.287Z,33.80
2022-08-12T03:51:39.258Z,33.70
2022-08-12T03:54:44.677Z,33.80
2022-08-12T03:57:49.646Z,33.80
2022-08-12T04:00:38.902Z,33.70
2022-08-12T04:03:44.091Z,33.90
2022-08-12T04:06:34.743Z,33.80
2022-08-12T04:09:23.962Z,33.80
2022-08-12T04:12:35.736Z,33.80
2022-08-12T04:15:25.984Z,34.00
2022-08-12T04:18:15.976Z,34.10
2022-08-12T04:21:05.223Z,34.00
2022-08-12T04:23:54.261Z,34.20
2022-08-12T04:26:41.693Z,34.00
2022-08-12T04:30:16.533Z,34.30
2022-08-12T04:32:40.926Z,34.20
2022-08-12T04:35:32.361Z,34.30
2022-08-12T04:38:21.267Z,34.40
2022-08-12T04:41:10.916Z,34.50
2022-08-12T04:44:02.150Z,34.70
2022-08-12T04:46:49.973Z,34.40
2022-08-12T04:49:39.269Z,34.60
2022-08-12T04:52:26.532Z,34.70
2022-08-12T04:55:13.972Z,34.70
2022-08-12T04:58:02.951Z,34.60
2022-08-12T05:00:51.212Z,34.70
2022-08-12T05:03:46.556Z,34.80
2022-08-12T05:06:34.613Z,34.80
2022-08-12T05:09:22.046Z,34.80
2022-08-12T05:12:10.849Z,35.00
2022-08-12T05:15:00.717Z,35.20
2022-08-12T05:17:48.217Z,35.30
2022-08-12T05:20:35.563Z,35.10
2022-08-12T05:23:23.497Z,35.30
2022-08-12T05:26:11.493Z,35.40
2022-08-12T05:28:59.002Z,35.30
2022-08-12T05:31:49.653Z,35.10
2022-08-12T05:34:36.741Z,35.20
2022-08-12T05:37:24.407Z,35.40
2022-08-12T05:40:13.375Z,35.40
2022-08-12T05:43:00.951Z,35.60
2022-08-12T05:45:49.642Z,35.60
2022-08-12T05:48:38.299Z,35.60
2022-08-12T05:51:39.681Z,35.60
2022-08-12T05:54:47.609Z,35.60
2022-08-12T05:57:35.632Z,35.60
2022-08-12T06:00:25.614Z,35.50
2022-08-12T06:03:14.100Z,35.60
2022-08-12T06:06:03.519Z,35.40
2022-08-12T06:08:54.989Z,35.60
2022-08-12T06:12:05.748Z,35.50
2022-08-12T06:14:50.083Z,35.50
2022-08-12T06:17:37.587Z,35.50
2022-08-12T06:20:28.305Z,35.50
2022-08-12T06:23:18.223Z,35.60
2022-08-12T06:26:07.146Z,35.60
2022-08-12T06:28:55.500Z,35.50
2022-08-12T06:31:42.789Z,35.40
2022-08-12T06:35:26.416Z,35.30
2022-08-12T06:37:42.649Z,35.20
2022-08-12T06:40:56.414Z,35.20
2022-08-12T06:44:06.431Z,35.30
2022-08-12T06:46:52.800Z,35.30
2022-08-12T06:49:40.026Z,35.40
2022-08-12T06:52:28.567Z,35.40
2022-08-12T06:55:20.627Z,35.40
2022-08-12T06:58:10.763Z,35.60
2022-08-12T07:00:59.893Z,35.60
2022-08-12T07:03:47.163Z,35.60
2022-08-12T07:06:34.581Z,35.50
2022-08-12T07:10:04.298Z,35.40
2022-08-12T07:12:29.630Z,35.40
2022-08-12T07:15:20.249Z,35.30
2022-08-12T07:18:17.126Z,35.30
2022-08-12T07:21:07.941Z,35.20
2022-08-12T07:23:56.369Z,34.90
2022-08-12T07:26:44.812Z,35.00
2022-08-12T07:30:04.408Z,34.90
2022-08-12T07:32:40.799Z,35.00
2022-08-12T07:35:29.372Z,34.90
2022-08-12T07:38:29.344Z,34.80
2022-08-12T07:41:20.639Z,34.70
2022-08-12T07:44:10.178Z,34.90
2022-08-12T07:46:57.218Z,34.90
2022-08-12T07:50:04.220Z,34.50
2022-08-12T07:52:53.596Z,34.50
2022-08-12T07:55:41.017Z,34.70
2022-08-12T07:58:28.400Z,34.50
2022-08-12T08:01:19.726Z,34.70
2022-08-12T08:04:25.421Z,34.60
2022-08-12T08:07:14.015Z,34.70
2022-08-12T08:10:05.019Z,34.50
2022-08-12T08:12:54.689Z,34.40
2022-08-12T08:16:02.534Z,34.40
2022-08-12T08:18:49.568Z,34.60
2022-08-12T08:21:36.828Z,34.50
2022-08-12T08:24:26.998Z,34.40
2022-08-12T08:27:14.108Z,34.40
2022-08-12T08:30:02.517Z,34.30
2022-08-12T08:32:50.411Z,34.20
2022-08-12T08:35:46.814Z,34.20
2022-08-12T08:38:35.533Z,34.30
2022-08-12T08:42:15.531Z,34.20
2022-08-12T08:44:50.372Z,34.30
2022-08-12T08:47:46.383Z,34.10
2022-08-12T08:50:34.079Z,33.70
2022-08-12T08:53:21.233Z,33.80
2022-08-12T08:56:11.569Z,33.80
2022-08-12T08:59:01.982Z,33.50
2022-08-12T09:01:52.162Z,33.20
2022-08-12T09:05:13.994Z,33.10
2022-08-12T09:07:51.378Z,33.10
2022-08-12T09:10:47.316Z,32.90
2022-08-12T09:14:12.209Z,32.70
2022-08-12T09:16:46.031Z,32.80
2022-08-12T09:19:37.801Z,32.80
2022-08-12T09:25:35.519Z,32.70
2022-08-12T09:32:03.780Z,32.70
2022-08-12T09:34:44.114Z,32.40
2022-08-12T09:37:55.073Z,32.30
2022-08-12T09:40:55.798Z,32.10
2022-08-12T09:44:37.859Z,32.10
2022-08-12T09:47:15.164Z,32.00
2022-08-12T09:50:03.540Z,31.70
2022-08-12T09:53:15.416Z,31.50
2022-08-12T09:56:40.134Z,31.30
2022-08-12T09:59:11.214Z,31.80
2022-08-12T10:02:45.561Z,31.60
2022-08-12T10:05:13.792Z,31.40
2022-08-12T10:08:10.695Z,31.20
2022-08-12T10:11:20.251Z,31.40
2022-08-12T10:14:08.156Z,31.50
2022-08-12T10:17:00.860Z,31.60
2022-08-12T10:19:52.389Z,31.50
2022-08-12T10:22:41.636Z,31.50
2022-08-12T10:26:18.426Z,31.50
2022-08-12T10:30:01.317Z,31.70
2022-08-12T10:32:43.136Z,31.70
2022-08-12T10:35:37.983Z,31.40
2022-08-12T10:38:34.807Z,31.30
2022-08-12T10:41:56.872Z,30.80
2022-08-12T10:44:47.036Z,30.70
2022-08-12T10:48:20.353Z,30.80
2022-08-12T10:51:01.648Z,30.60
2022-08-12T10:54:00.375Z,30.00
2022-08-12T10:56:50.311Z,29.90
2022-08-12T11:00:33.904Z,29.80
2022-08-12T11:04:18.135Z,29.50
2022-08-12T11:07:09.012Z,29.10
2022-08-12T11:09:10.985Z,29.50
2022-08-12T11:12:35.403Z,29.60
2022-08-12T11:15:19.378Z,29.50
2022-08-12T11:18:17.959Z,29.40
2022-08-12T11:21:06.052Z,29.60
2022-08-12T11:23:53.545Z,29.80
2022-08-12T11:26:42.640Z,29.70
2022-08-12T11:30:06.177Z,29.70
2022-08-12T11:32:39.601Z,29.50
2022-08-12T11:35:27.910Z,29.50
2022-08-12T11:38:20.306Z,29.40
2022-08-12T11:41:07.881Z,29.50
2022-08-12T11:43:58.550Z,29.60
2022-08-12T11:46:47.052Z,29.60
2022-08-12T11:49:38.887Z,29.80
2022-08-12T11:52:36.684Z,29.80
2022-08-12T11:55:34.231Z,29.90
2022-08-12T12:01:02.706Z,29.80
2022-08-12T12:02:01.174Z,29.70
2022-08-12T12:04:52.692Z,29.70
2022-08-12T12:08:37.130Z,29.70
2022-08-12T12:10:50.037Z,29.40
2022-08-12T12:14:07.882Z,29.80
2022-08-12T12:16:49.879Z,29.60
2022-08-12T12:19:39.844Z,29.70
2022-08-12T12:22:33.065Z,29.60
2022-08-12T12:26:06.894Z,29.60
2022-08-12T12:28:37.615Z,29.40
2022-08-12T12:32:10.008Z,29.50
2022-08-12T12:34:34.191Z,29.50
2022-08-12T12:37:59.000Z,29.40
2022-08-12T12:40:31.622Z,29.50
2022-08-12T12:43:29.073Z,29.70
2022-08-12T12:46:29.572Z,29.50
2022-08-12T12:49:17.215Z,29.30
2022-08-12T12:52:18.825Z,29.30
2022-08-12T12:55:11.074Z,29.40
2022-08-12T12:58:01.304Z,29.40
2022-08-12T13:00:50.989Z,29.40
2022-08-12T13:03:49.296Z,29.40
2022-08-12T13:06:37.101Z,29.30
2022-08-12T13:09:25.686Z,29.10
2022-08-12T13:12:24.280Z,29.20
2022-08-12T13:15:42.912Z,29.10
2022-08-12T13:18:28.452Z,29.00
2022-08-12T13:21:33.547Z,29.10
2022-08-12T13:24:25.789Z,29.00
2022-08-12T13:27:20.873Z,28.80
2022-08-12T13:30:12.003Z,28.80
2022-08-12T13:32:59.460Z,28.80
2022-08-12T13:36:04.907Z,29.20
2022-08-12T13:38:55.498Z,28.80
2022-08-12T13:41:44.490Z,28.70
2022-08-12T13:44:31.660Z,28.60
2022-08-12T13:47:20.974Z,28.60
2022-08-12T13:50:09.608Z,28.60
2022-08-12T13:52:57.457Z,28.60
2022-08-12T13:55:47.399Z,28.50
2022-08-12T13:58:37.386Z,28.50
2022-08-12T14:01:24.513Z,28.40
2022-08-12T14:04:12.767Z,28.60
2022-08-12T14:07:02.677Z,28.50
2022-08-12T14:10:08.043Z,28.90
2022-08-12T14:12:58.034Z,28.80
2022-08-12T14:15:50.300Z,28.70
2022-08-12T14:18:39.869Z,28.60
2022-08-12T14:21:28.899Z,28.60
2022-08-12T14:24:16.203Z,28.60
2022-08-12T14:27:08.847Z,28.40
2022-08-12T14:30:15.246Z,28.30
2022-08-12T14:33:10.845Z,28.20
2022-08-12T14:35:59.552Z,28.10
2022-08-12T14:38:47.421Z,28.20
2022-08-12T14:41:37.300Z,28.10
2022-08-12T14:44:58.086Z,28.20
2022-08-12T14:47:58.614Z,28.10
2022-08-12T14:52:16.176Z,28.10
2022-08-12T14:56:08.911Z,28.10
2022-08-12T14:57:20.526Z,28.10
2022-08-12T15:00:30.772Z,28.10
2022-08-12T15:03:17.878Z,28.10
2022-08-12T15:06:39.779Z,28.10
2022-08-12T15:09:16.402Z,28.10
2022-08-12T15:12:04.418Z,28.00
2022-08-12T15:14:53.689Z,28.00
2022-08-12T15:17:41.182Z,27.90
2022-08-12T15:20:37.412Z,27.90
2022-08-12T15:23:33.013Z,27.90
2022-08-12T15:26:40.671Z,27.80
2022-08-12T15:29:28.544Z,27.90
2022-08-12T15:32:16.363Z,28.00
2022-08-12T15:35:19.488Z,28.00
2022-08-12T15:38:11.986Z,28.00
2022-08-12T15:41:02.873Z,28.00
2022-08-12T15:44:15.800Z,27.90
2022-08-12T15:46:57.714Z,28.00
2022-08-12T15:50:00.039Z,27.90
2022-08-12T15:52:48.536Z,28.00
2022-08-12T15:55:37.509Z,28.00
2022-08-12T15:58:35.899Z,27.80
2022-08-12T16:01:24.075Z,27.80
2022-08-12T16:04:13.035Z,27.80
2022-08-12T16:07:06.120Z,27.90
2022-08-12T16:10:05.647Z,27.90
2022-08-12T16:12:57.422Z,27.90
2022-08-12T16:16:02.001Z,27.90
2022-08-12T16:18:50.237Z,27.90
2022-08-12T16:21:52.058Z,28.00
2022-08-12T16:24:47.151Z,28.00
2022-08-12T16:27:41.928Z,28.00
2022-08-12T16:30:34.346Z,27.90
2022-08-12T16:33:58.695Z,28.00
2022-08-12T16:36:46.004Z,28.00
2022-08-12T16:39:59.739Z,28.50
2022-08-12T16:42:54.201Z,28.30
2022-08-12T16:46:07.862Z,28.40
2022-08-12T16:48:58.150Z,28.00
2022-08-12T16:51:47.507Z,27.90
2022-08-12T16:54:36.434Z,27.70
2022-08-12T16:57:42.924Z,27.70
2022-08-12T17:00:30.195Z,27.90
2022-08-12T17:03:28.954Z,27.80
2022-08-12T17:06:19.519Z,27.90
2022-08-12T17:09:17.000Z,27.70
2022-08-12T17:12:06.754Z,27.70
2022-08-12T17:14:53.866Z,27.70
2022-08-12T17:17:43.097Z,27.70
2022-08-12T17:20:36.715Z,27.60
2022-08-12T17:23:33.388Z,27.60
2022-08-12T17:26:37.382Z,27.50
2022-08-12T17:30:01.210Z,27.60
2022-08-12T17:32:35.923Z,27.60
2022-08-12T17:35:37.439Z,27.60
2022-08-12T17:38:26.125Z,27.60
2022-08-12T17:41:22.942Z,27.60
2022-08-12T17:44:21.444Z,27.60
2022-08-12T17:47:16.183Z,27.60
2022-08-12T17:50:08.503Z,27.60
2022-08-12T17:53:03.034Z,27.80
2022-08-12T17:55:53.206Z,27.90
2022-08-12T17:58:42.543Z,27.80
2022-08-12T18:01:39.283Z,29.50
2022-08-12T18:04:35.949Z,30.00
2022-08-12T18:07:23.782Z,29.80
2022-08-12T18:10:42.945Z,30.10
2022-08-12T18:13:40.699Z,29.20
2022-08-12T18:16:30.856Z,29.10
2022-08-12T18:19:18.095Z,28.90
2022-08-12T18:22:06.760Z,28.90
2022-08-12T18:25:02.412Z,28.80
2022-08-12T18:28:16.177Z,28.70
2022-08-12T18:31:03.305Z,29.10
2022-08-12T18:33:52.367Z,28.80
2022-08-12T18:36:40.850Z,29.10
2022-08-12T18:39:51.421Z,29.10
2022-08-12T18:42:41.611Z,29.00
2022-08-12T18:45:47.218Z,28.90
2022-08-12T18:48:46.439Z,29.20
2022-08-12T18:51:49.091Z,28.80
2022-08-12T18:54:48.742Z,28.70
2022-08-12T18:58:06.825Z,28.70
2022-08-12T19:00:51.566Z,29.00
2022-08-12T19:03:40.397Z,28.80
2022-08-12T19:06:38.262Z,29.20
2022-08-12T19:09:38.762Z,29.40
2022-08-12T19:13:00.543Z,29.50
2022-08-12T19:15:48.034Z,29.50
2022-08-12T19:18:39.870Z,30.60
2022-08-12T19:21:32.019Z,30.20
2022-08-12T19:24:42.135Z,30.30
2022-08-12T19:27:32.619Z,30.30
2022-08-12T19:30:43.522Z,30.90
2022-08-12T19:33:33.349Z,31.00
2022-08-12T19:36:25.178Z,31.00
2022-08-12T19:39:23.160Z,30.90
2022-08-12T19:42:16.927Z,31.30
2022-08-12T19:45:05.823Z,31.50
2022-08-12T19:48:03.768Z,31.20
2022-08-12T19:50:55.582Z,30.90
2022-08-12T19:53:57.541Z,31.20
2022-08-12T19:56:51.665Z,31.80
2022-08-12T19:59:42.900Z,31.40
2022-08-12T20:02:48.350Z,31.40
2022-08-12T20:06:06.056Z,31.20
2022-08-12T20:08:49.406Z,31.40
2022-08-12T20:12:15.109Z,31.80
2022-08-12T20:14:55.191Z,31.80
2022-08-12T20:17:50.712Z,32.00
2022-08-12T20:20:39.431Z,32.00
2022-08-12T20:23:50.796Z,32.50
2022-08-12T20:26:41.890Z,32.30
2022-08-12T20:29:36.569Z,32.10
2022-08-12T20:32:29.487Z,32.30
2022-08-12T20:35:24.262Z,32.30
2022-08-12T20:38:27.021Z,32.70
2022-08-12T20:41:17.410Z,32.50
2022-08-12T20:44:05.999Z,32.30
2022-08-12T20:47:18.422Z,32.30
2022-08-12T20:50:09.691Z,32.20
2022-08-12T20:52:57.145Z,32.20
2022-08-12T20:55:56.831Z,32.20
2022-08-12T20:58:44.458Z,32.60
2022-08-12T21:01:36.823Z,32.40
2022-08-12T21:04:54.916Z,32.80
2022-08-12T21:07:47.713Z,33.00
2022-08-12T21:10:39.774Z,32.90
2022-08-12T21:13:29.323Z,33.00
2022-08-12T21:16:16.617Z,33.20
2022-08-12T21:19:24.662Z,32.60
2022-08-12T21:22:33.680Z,32.50
2022-08-12T21:25:21.189Z,32.60
2022-08-12T21:28:09.620Z,32.30
2022-08-12T21:32:34.373Z,32.10
2022-08-12T21:34:08.481Z,31.70
2022-08-12T21:37:00.046Z,31.60
2022-08-12T21:39:53.490Z,31.60
2022-08-12T21:42:45.484Z,31.50
2022-08-12T21:45:47.857Z,31.40
2022-08-12T21:48:42.614Z,31.40
2022-08-12T21:51:48.920Z,31.40
2022-08-12T21:54:40.666Z,31.40
2022-08-12T21:57:36.266Z,31.30
2022-08-12T22:00:37.088Z,31.30
2022-08-12T22:04:03.056Z,31.30
2022-08-12T22:06:53.597Z,31.30
2022-08-12T22:09:43.436Z,31.30
2022-08-12T22:12:37.624Z,31.40
2022-08-12T22:15:25.187Z,31.20
2022-08-12T22:18:12.974Z,31.90
2022-08-12T22:21:03.262Z,31.20
2022-08-12T22:24:04.429Z,31.20
2022-08-12T22:26:52.929Z,31.20
2022-08-12T22:30:03.918Z,31.20
2022-08-12T22:32:54.798Z,31.20
2022-08-12T22:35:55.237Z,31.20
2022-08-12T22:38:47.230Z,31.30
2022-08-12T22:41:56.977Z,31.20
2022-08-12T22:45:04.144Z,31.30
2022-08-12T22:47:55.709Z,31.20
2022-08-12T22:50:43.596Z,31.30
2022-08-12T22:53:36.538Z,31.30
2022-08-12T22:56:30.840Z,31.30
2022-08-12T22:59:19.026Z,31.60
2022-08-12T23:02:11.388Z,32.10
2022-08-12T23:04:59.627Z,32.20
2022-08-12T23:07:59.622Z,32.20
2022-08-12T23:10:48.290Z,32.20
2022-08-12T23:13:49.150Z,32.30
2022-08-12T23:16:45.311Z,32.40
2022-08-12T23:19:38.305Z,32.60
2022-08-12T23:22:36.507Z,32.60
2022-08-12T23:25:32.699Z,32.60
2022-08-12T23:28:52.530Z,32.50
2022-08-12T23:32:03.291Z,32.50
2022-08-12T23:34:50.481Z,32.70
2022-08-12T23:37:47.050Z,32.80
2022-08-12T23:40:40.809Z,32.90
2022-08-12T23:43:38.384Z,32.80
2022-08-12T23:46:27.256Z,33.10
2022-08-12T23:49:26.708Z,32.80
2022-08-12T23:52:23.484Z,33.30
2022-08-12T23:55:23.787Z,33.60
2022-08-12T23:58:21.078Z,33.50
